Time;durP1;ratioP1;P1;durP2;ratioP2;P2;SDS_P1;SDS_P2;PMS_P1;PMS_P2;Temp;Humidity;BMP_temperature;BMP_pressure;BME280_temperature;BME280_humidity;BME280_pressure;Samples;Min_cycle;Max_cycle;Signal;HPM_P1;HPM_P2
2021/10/29 00:00:35;;;;;;;11.70;10.60;;;;;;;11.72;69.91;101179.38;6192778;28;20226;-65
2021/10/29 00:03:56;;;;;;;10.47;9.57;;;;;;;11.49;70.30;101185.63;6188582;28;20218;-64
2021/10/29 00:07:17;;;;;;;13.07;11.80;;;;;;;10.92;71.93;101177.28;6189038;28;20667;-65
2021/10/29 00:10:40;;;;;;;11.43;9.90;;;;;;;10.95;72.40;101178.16;6190522;28;20226;-64
2021/10/29 00:14:01;;;;;;;12.87;11.57;;;;;;;10.67;73.34;101173.91;6192222;28;20198;-64
2021/10/29 00:17:22;;;;;;;12.50;11.33;;;;;;;10.86;73.63;101167.75;6185371;28;20238;-64
2021/10/29 00:20:43;;;;;;;12.63;10.07;;;;;;;10.78;73.09;101179.97;6175222;28;20262;-65
2021/10/29 00:24:05;;;;;;;11.30;10.20;;;;;;;10.75;73.33;101180.81;6169110;28;20223;-64
2021/10/29 00:27:27;;;;;;;10.93;9.93;;;;;;;10.57;73.57;101178.28;6159861;28;20223;-65
2021/10/29 00:30:48;;;;;;;15.13;12.03;;;;;;;10.30;74.88;101177.50;6165600;28;20648;-64
2021/10/29 00:34:09;;;;;;;10.37;9.33;;;;;;;10.70;73.97;101185.19;6166535;28;20747;-65
2021/10/29 00:37:37;;;;;;;11.80;10.60;;;;;;;10.21;74.01;101180.06;6158073;28;20230;-65
2021/10/29 00:40:58;;;;;;;11.27;9.97;;;;;;;10.29;74.81;101193.06;6168608;28;20222;-63
2021/10/29 00:44:24;;;;;;;10.93;9.83;;;;;;;9.80;75.91;101191.38;6167168;28;20206;-64
2021/10/29 00:47:45;;;;;;;17.10;11.90;;;;;;;10.01;75.80;101190.50;6188435;28;20225;-64
2021/10/29 00:51:07;;;;;;;12.20;11.00;;;;;;;10.18;75.82;101193.09;6190968;28;20218;-64
2021/10/29 00:54:28;;;;;;;12.97;11.03;;;;;;;10.44;73.85;101191.31;6190830;28;20640;-64
2021/10/29 00:57:50;;;;;;;10.53;9.43;;;;;;;10.66;73.28;101188.66;6188365;28;20214;-65
2021/10/29 01:01:12;;;;;;;11.10;10.17;;;;;;;10.71;72.38;101189.50;6187972;28;20222;-65
2021/10/29 01:04:33;;;;;;;10.20;9.30;;;;;;;10.18;74.21;101193.09;6190100;28;20756;-64
2021/10/29 01:07:54;;;;;;;13.03;10.33;;;;;;;10.08;75.10;101181.84;6186612;28;20524;-65
2021/10/29 01:11:18;;;;;;;11.40;10.33;;;;;;;9.74;76.04;101186.19;6187617;28;20222;-64
2021/10/29 01:14:39;;;;;;;13.00;11.77;;;;;;;10.35;74.30;101193.09;6190287;28;20198;-65
2021/10/29 01:18:01;;;;;;;11.50;10.33;;;;;;;9.73;75.88;101189.63;6183020;28;20246;-65
2021/10/29 01:21:23;;;;;;;12.47;11.27;;;;;;;9.77;76.11;101184.47;6189213;28;20238;-64
2021/10/29 01:24:45;;;;;;;14.27;12.00;;;;;;;9.79;75.67;101179.22;6191030;28;20234;-65
2021/10/29 01:28:10;;;;;;;10.83;9.80;;;;;;;9.70;76.03;101176.66;6195323;28;20202;-64
2021/10/29 01:31:31;;;;;;;12.17;11.07;;;;;;;9.62;76.20;101174.91;6194282;28;20222;-65
2021/10/29 01:34:52;;;;;;;11.90;10.70;;;;;;;9.70;76.42;101177.50;6192808;28;20234;-65
2021/10/29 01:38:15;;;;;;;13.10;11.80;;;;;;;9.78;76.00;101180.13;6195005;28;20210;-64
2021/10/29 01:41:36;;;;;;;13.80;11.27;;;;;;;9.78;75.62;101187.91;6194491;28;20230;-64
2021/10/29 01:44:57;;;;;;;12.70;11.47;;;;;;;9.88;75.06;101181.84;6194367;28;20234;-64
2021/10/29 01:48:18;;;;;;;14.37;13.00;;;;;;;9.56;75.91;101177.50;6195938;28;20898;-64
2021/10/29 01:51:40;;;;;;;13.23;11.90;;;;;;;9.73;76.03;101184.44;6187875;28;20517;-64
2021/10/29 01:55:03;;;;;;;14.17;12.83;;;;;;;9.74;76.00;101170.56;6191559;28;20234;-63
2021/10/29 01:58:23;;;;;;;12.60;11.37;;;;;;;9.62;76.51;101176.66;6188536;28;20198;-63
2021/10/29 02:01:44;;;;;;;13.47;12.23;;;;;;;9.46;76.18;101168.84;6180485;28;20230;-64
2021/10/29 02:05:07;;;;;;;14.20;12.90;;;;;;;9.70;75.56;101168.84;6187552;28;20485;-65
2021/10/29 02:08:28;;;;;;;13.73;11.80;;;;;;;9.24;76.91;101177.44;6189242;28;20541;-65
2021/10/29 02:11:50;;;;;;;14.30;13.00;;;;;;;9.63;75.72;101166.25;6191427;28;20230;-65
2021/10/29 02:15:11;;;;;;;15.77;12.70;;;;;;;9.59;74.91;101161.88;6191776;28;20230;-64
2021/10/29 02:18:32;;;;;;;15.30;13.70;;;;;;;9.27;76.31;101162.72;6190322;28;20210;-65
2021/10/29 02:21:53;;;;;;;14.07;12.77;;;;;;;9.77;74.79;101160.16;6191176;28;20317;-65
2021/10/29 02:25:14;;;;;;;13.93;12.63;;;;;;;9.35;76.17;101146.28;6193622;28;20234;-64
2021/10/29 02:28:38;;;;;;;15.17;13.63;;;;;;;9.21;75.79;101149.72;6190309;28;20234;-65
2021/10/29 02:31:59;;;;;;;16.07;14.50;;;;;;;8.95;77.64;101130.59;6181989;28;20234;-64
2021/10/29 02:35:20;;;;;;;14.50;13.00;;;;;;;9.29;76.81;101123.75;6179359;28;20612;-64
2021/10/29 02:38:41;;;;;;;16.90;15.40;;;;;;;9.34;76.46;101129.81;6180550;28;20190;-64
2021/10/29 02:42:04;;;;;;;15.67;14.13;;;;;;;9.14;76.01;101127.19;6178940;28;20229;-64
2021/10/29 02:45:26;;;;;;;15.37;13.97;;;;;;;9.27;75.85;101133.28;6179762;28;20674;-64
2021/10/29 02:48:47;;;;;;;14.57;13.17;;;;;;;9.39;75.89;101128.09;6179536;28;20229;-64
2021/10/29 02:52:08;;;;;;;16.40;14.80;;;;;;;9.74;74.39;101121.16;6180367;28;20234;-65
2021/10/29 02:55:29;;;;;;;17.53;15.83;;;;;;;9.42;74.96;101111.63;6178577;28;20256;-65
2021/10/29 02:58:50;;;;;;;17.17;15.50;;;;;;;;;;6181555;28;20207;-64
2021/10/29 03:02:13;;;;;;;16.43;14.93;;;;;;;-146.32;100.00;58893.91;6192211;28;20221;-64
2021/10/29 03:05:36;;;;;;;16.77;15.27;;;;;;;;;;6193314;28;20233;-64
2021/10/29 03:08:57;;;;;;;17.27;15.57;;;;;;;8.75;78.02;101110.66;6189346;28;20198;-65
2021/10/29 03:12:18;;;;;;;18.03;16.13;;;;;;;8.27;79.04;101117.34;6185987;28;20225;-65
2021/10/29 03:15:39;;;;;;;18.30;16.37;;;;;;;8.43;78.49;101106.22;6191120;28;20571;-64
2021/10/29 03:19:01;;;;;;;18.70;17.03;;;;;;;8.65;77.80;101095.91;6190779;28;20217;-64
2021/10/29 03:22:22;;;;;;;19.37;17.23;;;;;;;9.00;76.18;101088.19;6188844;28;20324;-64
2021/10/29 03:25:44;;;;;;;17.90;15.20;;;;;;;8.59;77.84;101106.28;6188809;28;20229;-64
2021/10/29 03:29:05;;;;;;;18.07;16.30;;;;;;;8.89;76.83;101102.88;6185762;28;20194;-64
2021/10/29 03:32:26;;;;;;;20.20;17.10;;;;;;;8.93;76.77;101103.75;6184273;28;20222;-64
2021/10/29 03:35:48;;;;;;;19.67;17.67;;;;;;;8.34;78.05;101113.06;6182879;28;20226;-64
2021/10/29 03:39:11;;;;;;;17.73;16.03;;;;;;;8.34;78.38;101103.53;6169343;28;20231;-65
2021/10/29 03:42:37;;;;;;;19.23;17.43;;;;;;;8.68;77.51;101106.28;6189876;28;20214;-65
2021/10/29 03:46:01;;;;;;;18.03;16.20;;;;;;;8.38;77.78;101107.03;6187147;28;20325;-65
2021/10/29 03:49:27;;;;;;;20.67;17.27;;;;;;;8.15;79.55;101104.31;6189681;28;20762;-64
2021/10/29 03:52:54;;;;;;;19.13;17.33;;;;;;;8.28;79.06;101106.09;6187023;28;20214;-64
2021/10/29 03:56:19;;;;;;;20.20;18.03;;;;;;;8.37;77.96;101108.72;6191848;28;20230;-65
2021/10/29 03:59:40;;;;;;;18.90;16.87;;;;;;;8.51;77.15;101102.75;6187320;28;20206;-64
2021/10/29 04:03:03;;;;;;;20.53;18.43;;;;;;;7.96;79.41;101103.31;6187490;28;20756;-64
2021/10/29 04:06:24;;;;;;;18.60;16.77;;;;;;;8.40;77.74;101097.50;6188050;28;20233;-65
2021/10/29 04:09:46;;;;;;;21.43;19.13;;;;;;;8.78;76.27;101102.88;6189969;28;20229;-65
2021/10/29 04:13:10;;;;;;;20.03;17.93;;;;;;;8.32;77.75;101099.19;6184180;28;20202;-64
2021/10/29 04:16:33;;;;;;;19.83;17.73;;;;;;;8.52;76.98;101099.31;6188237;28;20321;-64
2021/10/29 04:19:54;;;;;;;22.33;18.50;;;;;;;8.91;75.68;101103.75;6182840;28;20587;-65
2021/10/29 04:23:15;;;;;;;20.33;18.27;;;;;;;8.17;77.92;101100.84;6187029;28;20265;-65
2021/10/29 04:26:38;;;;;;;22.13;19.83;;;;;;;8.04;78.62;101102.50;6187104;28;20234;-65
2021/10/29 04:30:01;;;;;;;21.60;18.33;;;;;;;8.42;77.71;101095.81;6185735;28;20279;-64
2021/10/29 04:33:22;;;;;;;21.33;19.23;;;;;;;8.05;77.75;101093.88;6188131;28;20202;-64
2021/10/29 04:36:43;;;;;;;22.03;18.63;;;;;;;7.94;77.93;101095.53;6188196;28;20222;-65
2021/10/29 04:40:05;;;;;;;19.97;18.03;;;;;;;8.34;77.42;101106.13;6181771;28;20234;-64
2021/10/29 04:43:28;;;;;;;21.50;19.20;;;;;;;8.55;76.27;101094.13;6189035;28;20186;-65
2021/10/29 04:46:49;;;;;;;19.70;17.80;;;;;;;8.69;75.65;101099.38;6189237;28;20229;-64
2021/10/29 04:50:11;;;;;;;21.07;19.03;;;;;;;8.74;74.96;101089.84;6190277;28;20230;-64
2021/10/29 04:53:31;;;;;;;21.27;18.97;;;;;;;8.37;76.06;101090.56;6188768;28;20250;-64
2021/10/29 04:56:52;;;;;;;22.87;20.67;;;;;;;7.96;77.82;101095.53;6185661;28;20222;-63
2021/10/29 05:00:16;;;;;;;22.10;19.90;;;;;;;8.58;76.38;101088.94;6183706;28;20230;-64
2021/10/29 05:03:37;;;;;;;22.23;19.93;;;;;;;7.91;77.48;101095.53;6187561;28;20214;-63
2021/10/29 05:06:57;;;;;;;22.60;20.33;;;;;;;8.02;76.56;101096.44;6188145;28;20269;-63
2021/10/29 05:10:19;;;;;;;21.57;19.47;;;;;;;8.46;75.72;101087.19;6184722;28;20234;-63
2021/10/29 05:13:40;;;;;;;22.63;20.23;;;;;;;8.26;75.52;101084.47;6181935;28;20225;-63
2021/10/29 05:17:02;;;;;;;22.87;18.87;;;;;;;8.31;76.50;101085.34;6182567;28;20245;-62
2021/10/29 05:20:24;;;;;;;20.30;18.27;;;;;;;8.20;75.34;101084.41;6178975;28;20226;-63
2021/10/29 05:23:45;;;;;;;19.17;17.27;;;;;;;8.24;75.96;101096.56;6175472;28;20305;-64
2021/10/29 05:27:06;;;;;;;20.83;18.73;;;;;;;8.51;75.07;101088.06;6172309;28;20611;-64
2021/10/29 05:30:27;;;;;;;20.47;18.30;;;;;;;7.99;75.98;101093.84;6174500;28;20233;-65
2021/10/29 05:33:50;;;;;;;19.47;17.53;;;;;;;8.41;75.02;101075.88;6176132;28;20226;-65
2021/10/29 05:37:10;;;;;;;21.57;19.37;;;;;;;8.06;76.45;101080.06;6176245;28;20222;-65
2021/10/29 05:40:31;;;;;;;21.87;19.63;;;;;;;7.79;77.26;101083.34;6177806;28;20855;-63
2021/10/29 05:43:52;;;;;;;18.53;16.67;;;;;;;8.33;75.71;101081.03;6193673;28;20195;-64
2021/10/29 05:47:15;;;;;;;20.87;18.00;;;;;;;8.62;73.93;101073.38;6187679;28;20317;-65
2021/10/29 05:50:46;;;;;;;20.50;18.47;;;;;;;7.69;77.13;101082.38;6193396;28;20253;-64
2021/10/29 05:54:12;;;;;;;22.67;20.27;;;;;;;8.01;76.53;101073.09;6189397;28;20226;-67
2021/10/29 05:57:34;;;;;;;27.47;20.53;;;;;;;8.06;76.22;101081.75;6176725;28;20226;-66
2021/10/29 06:00:55;;;;;;;21.63;19.33;;;;;;;7.74;77.42;101071.22;6174715;28;20612;-68
2021/10/29 06:04:16;;;;;;;26.83;20.83;;;;;;;7.81;76.95;101072.97;6169291;28;20198;-64
2021/10/29 06:07:39;;;;;;;21.40;19.13;;;;;;;7.68;77.38;101075.47;6177653;28;20218;-65
2021/10/29 06:11:00;;;;;;;23.63;20.13;;;;;;;7.82;77.26;101067.78;6173077;28;20234;-65
2021/10/29 06:14:21;;;;;;;26.07;20.43;;;;;;;7.65;77.43;101072.84;6174508;28;20210;-66
2021/10/29 06:17:43;;;;;;;24.30;18.70;;;;;;;8.28;75.90;101070.63;6169900;28;20230;-66
2021/10/29 06:21:04;;;;;;;23.93;19.03;;;;;;;8.61;74.46;101068.22;6174876;28;20233;-66
2021/10/29 06:24:27;;;;;;;22.13;19.77;;;;;;;8.81;73.27;101071.69;6177312;28;20626;-64
2021/10/29 06:31:28;;;;;;;20.30;18.20;;;;;;;8.48;74.43;101078.53;6174194;28;20217;-65
2021/10/29 06:34:49;;;;;;;21.57;19.10;;;;;;;8.07;75.98;101081.78;6187145;28;20266;-65
2021/10/29 06:38:11;;;;;;;24.93;18.53;;;;;;;8.17;75.77;101079.22;6194634;28;20214;-66
2021/10/29 06:41:33;;;;;;;22.97;20.50;;;;;;;8.03;75.70;101074.84;6179022;28;20247;-64
2021/10/29 06:45:05;;;;;;;26.67;20.97;;;;;;;7.80;77.13;101076.44;6158687;28;20239;-65
2021/10/29 06:48:33;;;;;;;25.20;20.53;;;;;;;7.72;77.17;101080.69;6155305;28;20199;-65
2021/10/29 06:52:16;;;;;;;24.37;20.73;;;;;;;7.62;78.63;101080.63;6173794;28;20219;-64
2021/10/29 06:59:27;;;;;;;23.23;20.07;;;;;;;8.06;76.36;101074.88;6163158;28;20209;-64
2021/10/29 07:42:55;;;;;;;21.63;19.33;;;;;;;8.96;73.70;101077.81;6189473;28;20326;-65
2021/10/29 07:46:17;;;;;;;21.23;18.70;;;;;;;8.78;74.11;101078.63;6184905;28;20238;-65
2021/10/29 07:49:38;;;;;;;23.47;20.03;;;;;;;9.14;72.97;101072.63;6191404;28;20198;-65
2021/10/29 07:53:00;;;;;;;24.03;19.63;;;;;;;9.35;71.98;101078.72;6193209;28;20213;-65
2021/10/29 07:56:21;;;;;;;22.63;20.23;;;;;;;8.50;73.73;101093.25;6193290;28;20237;-65
2021/10/29 07:59:42;;;;;;;23.13;20.07;;;;;;;8.73;74.52;101083.81;6191632;28;20245;-65
2021/10/29 08:03:05;;;;;;;24.07;19.00;;;;;;;8.84;74.57;101071.72;6189396;28;20612;-64
2021/10/29 08:06:26;;;;;;;23.37;19.43;;;;;;;8.94;74.34;101076.94;6187004;28;20222;-65
2021/10/29 08:09:49;;;;;;;22.17;19.37;;;;;;;9.46;72.13;101082.19;6187382;28;20496;-65
2021/10/29 08:13:10;;;;;;;20.67;18.37;;;;;;;9.62;71.34;101076.09;6179288;28;20207;-63
2021/10/29 08:16:31;;;;;;;21.07;17.77;;;;;;;9.56;71.55;101083.91;6187803;28;20651;-63
2021/10/29 08:19:52;;;;;;;22.73;18.30;;;;;;;9.48;71.94;101074.34;6192738;28;20234;-64
2021/10/29 08:23:13;;;;;;;21.77;17.20;;;;;;;9.96;70.19;101073.41;6192102;28;20285;-64
2021/10/29 08:26:36;;;;;;;20.77;17.17;;;;;;;9.88;70.25;101075.19;6192980;28;20225;-64
2021/10/29 08:29:57;;;;;;;19.47;17.37;;;;;;;9.75;70.20;101083.88;6188868;28;20242;-64
2021/10/29 08:33:19;;;;;;;21.43;18.27;;;;;;;9.88;70.69;101082.13;6188821;28;20874;-64
2021/10/29 08:36:41;;;;;;;19.17;17.23;;;;;;;10.24;69.47;101069.00;6195928;28;20225;-62
2021/10/29 08:40:05;;;;;;;18.70;16.63;;;;;;;10.91;67.31;101066.09;6195487;28;20241;-63
2021/10/29 08:43:27;;;;;;;18.93;17.03;;;;;;;10.65;68.26;101069.72;6198087;28;20205;-63
2021/10/29 08:46:48;;;;;;;18.37;15.07;;;;;;;11.57;64.95;101058.66;6194535;28;20234;-64
2021/10/29 08:50:12;;;;;;;17.53;15.53;;;;;;;11.86;63.05;101052.25;6198028;28;20229;-63
2021/10/29 08:53:33;;;;;;;18.77;16.50;;;;;;;13.52;58.77;101057.84;6197751;28;20214;-64
2021/10/29 08:56:55;;;;;;;18.57;14.70;;;;;;;13.52;58.77;101057.84;6195211;28;20225;-64
2021/10/29 09:00:20;;;;;;;16.80;14.67;;;;;;;16.49;50.28;101044.78;6199069;28;20635;-64
2021/10/29 09:03:46;;;;;;;15.87;14.30;;;;;;;17.21;47.34;101041.69;6193016;28;20210;-64
2021/10/29 09:33:11;;;;;;;14.52;13.13;;;;;;;20.48;37.66;101014.63;6201234;28;20209;-65
2021/10/29 09:36:36;;;;;;;15.45;13.40;;;;;;;22.34;35.70;101017.59;6197473;28;20227;-65
2021/10/29 09:39:57;;;;;;;13.43;12.13;;;;;;;21.39;36.25;101023.44;6192341;28;20243;-66
2021/10/29 09:43:25;;;;;;;14.02;12.63;;;;;;;22.94;34.90;101007.09;6192417;28;20556;-64
2021/10/29 09:46:54;;;;;;;12.65;11.55;;;;;;;23.47;33.09;101009.38;6192439;28;20241;-64
2021/10/29 09:50:24;;;;;;;13.98;12.57;;;;;;;23.87;33.04;101012.28;6181163;28;20222;-66
2021/10/29 09:53:48;;;;;;;13.40;11.95;;;;;;;23.09;33.93;101009.84;6192425;28;20457;-65
2021/10/29 09:57:10;;;;;;;12.20;10.82;;;;;;;24.10;32.52;101003.72;6189199;28;20229;-65
2021/10/29 10:00:32;;;;;;;14.75;12.30;;;;;;;25.27;29.44;100996.16;6193313;28;20584;-66
2021/10/29 10:03:53;;;;;;;13.68;12.48;;;;;;;25.31;30.78;100989.66;6191111;28;20243;-64
2021/10/29 10:07:15;;;;;;;13.15;11.57;;;;;;;24.90;31.14;100987.09;6189205;28;20214;-65
2021/10/29 10:10:38;;;;;;;11.95;10.75;;;;;;;25.91;29.12;100985.50;6188203;28;20223;-63
2021/10/29 10:13:59;;;;;;;13.05;11.43;;;;;;;26.70;28.53;100978.03;6195667;28;20218;-63
2021/10/29 10:17:22;;;;;;;13.45;11.90;;;;;;;27.48;27.60;100983.75;6188454;28;20317;-64
2021/10/29 10:20:43;;;;;;;14.32;11.70;;;;;;;25.21;29.67;100979.69;6191653;28;20225;-65
2021/10/29 10:24:09;;;;;;;13.02;11.90;;;;;;;25.81;30.02;100973.75;6195371;28;20297;-65
2021/10/29 10:42:50;;;;;;;12.13;9.55;;;;;;;27.95;26.56;100949.75;6194636;28;20260;-65
2021/10/29 10:46:18;;;;;;;16.75;10.80;;;;;;;26.67;28.72;100945.34;6191182;28;20225;-65
2021/10/29 10:49:47;;;;;;;10.52;9.48;;;;;;;28.53;25.86;100946.00;6193429;28;20193;-64
2021/10/29 10:53:41;;;;;;;11.43;9.25;;;;;;;25.09;30.64;100960.06;6180841;28;20288;-64
2021/10/29 10:57:26;;;;;;;11.27;10.18;;;;;;;27.89;26.96;100945.72;6192503;28;20247;-63
2021/10/29 11:00:55;;;;;;;10.18;9.18;;;;;;;26.57;28.44;100933.63;6170838;28;20540;-65
2021/10/29 11:11:58;;;;;;;9.60;8.70;;;;;;;27.60;26.86;100923.94;6189139;28;20229;-64
2021/10/29 11:15:22;;;;;;;9.10;8.20;;;;;;;29.17;25.06;100911.09;6193147;28;20225;-64
2021/10/29 11:18:52;;;;;;;9.75;8.68;;;;;;;29.73;24.67;100906.31;6193717;28;20241;-64
2021/10/29 11:22:15;;;;;;;9.07;8.32;;;;;;;28.41;26.64;100895.13;6188913;28;20259;-64
2021/10/29 11:25:49;;;;;;;9.65;8.70;;;;;;;28.58;26.68;100895.59;6188449;28;20229;-64
2021/10/29 11:29:11;;;;;;;9.18;8.27;;;;;;;28.87;26.01;100890.44;6187612;28;20285;-65
2021/10/29 11:32:32;;;;;;;8.20;7.40;;;;;;;29.21;25.69;100896.44;6190222;28;20611;-65
2021/10/29 11:36:04;;;;;;;9.52;7.97;;;;;;;29.98;24.74;100884.31;6174458;28;20230;-65
2021/10/29 11:39:27;;;;;;;9.50;8.50;;;;;;;30.95;23.72;100885.38;6183776;28;20226;-65
2021/10/29 11:42:54;;;;;;;7.57;6.88;;;;;;;29.24;25.37;100880.09;6185858;28;20518;-67
2021/10/29 11:46:16;;;;;;;7.70;7.00;;;;;;;28.54;26.05;100875.38;6185402;28;20221;-66
2021/10/29 11:49:40;;;;;;;7.60;5.93;;;;;;;28.69;26.10;100879.44;6187957;28;20199;-63
2021/10/29 11:53:02;;;;;;;7.43;6.70;;;;;;;27.60;27.07;100880.31;6191768;28;20217;-66
2021/10/29 11:56:29;;;;;;;6.25;5.65;;;;;;;28.14;26.80;100867.97;6183071;28;20530;-63
2021/10/29 12:00:10;;;;;;;6.95;6.13;;;;;;;29.70;24.88;100866.28;6185571;28;20238;-63
2021/10/29 12:07:20;;;;;;;6.40;5.80;;;;;;;29.31;24.62;100852.72;6182891;28;20213;-65
2021/10/29 12:10:44;;;;;;;7.90;5.00;;;;;;;26.66;28.06;100866.22;6164075;28;20585;-65
2021/10/29 12:14:07;;;;;;;4.72;4.32;;;;;;;25.92;29.56;100848.50;6170879;28;20648;-66
2021/10/29 12:17:32;;;;;;;5.40;4.97;;;;;;;26.57;29.43;100856.19;6164452;28;20329;-64
2021/10/29 12:20:54;;;;;;;6.97;5.50;;;;;;;23.33;34.37;100864.91;6175561;28;20241;-65
2021/10/29 12:24:16;;;;;;;6.45;4.95;;;;;;;22.36;36.95;100845.94;6184588;28;20233;-65
2021/10/29 12:27:39;;;;;;;8.35;4.93;;;;;;;22.00;37.80;100849.69;6182515;28;20234;-66
2021/10/29 12:31:09;;;;;;;5.53;4.78;;;;;;;21.85;38.04;100845.25;6189935;28;20225;-64
2021/10/29 12:36:26;;;;;;;7.57;5.03;;;;;;;22.70;37.18;100851.91;6184045;28;20217;-65
2021/10/29 12:38:47;;;;;;;6.68;6.07;;;;;;;22.56;37.50;100842.09;6191677;28;20194;-66
2021/10/29 13:04:11;;;;;;;5.00;4.60;;;;;;;19.82;43.93;100820.31;6158793;28;20484;-64
2021/10/29 13:07:34;;;;;;;5.13;4.40;;;;;;;19.77;44.02;100822.31;6127662;28;20231;-63
2021/10/29 13:10:58;;;;;;;6.20;4.07;;;;;;;20.13;43.29;100812.72;6141896;28;20242;-64
2021/10/29 13:14:26;;;;;;;4.63;4.15;;;;;;;20.14;43.36;100817.94;6148620;28;20207;-64
2021/10/29 13:17:53;;;;;;;4.80;4.35;;;;;;;19.74;43.85;100801.34;6145938;28;20237;-64
2021/10/29 13:28:56;;;;;;;7.50;5.25;;;;;;;19.56;44.58;100775.75;6133761;28;20203;-65
2021/10/29 13:36:13;;;;;;;5.22;4.72;;;;;;;18.68;45.94;100784.97;6149171;28;20243;-64
2021/10/29 13:50:52;;;;;;;4.90;4.45;;;;;;;18.81;46.30;100774.78;6157713;28;20602;-63
2021/10/29 13:54:18;;;;;;;4.22;3.83;;;;;;;18.33;46.76;100766.22;6173924;28;20202;-64
2021/10/29 13:58:02;;;;;;;6.40;4.25;;;;;;;18.95;45.75;100764.44;6173272;28;20214;-64
2021/10/29 14:30:33;;;;;;;6.90;4.65;;;;;;;18.48;47.68;100756.81;6168921;28;20682;-64
2021/10/29 14:33:58;;;;;;;4.50;4.10;;;;;;;18.06;48.78;100755.06;6174354;28;20198;-65
2021/10/29 14:37:28;;;;;;;5.50;3.83;;;;;;;17.68;49.75;100749.50;6171427;28;20575;-65
2021/10/29 14:40:52;;;;;;;5.33;3.23;;;;;;;17.72;51.69;100743.22;6172122;28;20234;-67
2021/10/29 14:44:18;;;;;;;9.00;4.70;;;;;;;17.50;51.28;100748.47;6174099;28;20214;-67
2021/10/29 14:47:52;;;;;;;4.50;3.73;;;;;;;17.51;53.27;100732.63;6179089;28;20226;-67
2021/10/29 14:51:37;;;;;;;8.70;4.17;;;;;;;17.56;51.97;100724.53;6173849;28;20233;-67
2021/10/29 15:17:22;;;;;;;5.20;3.93;;;;;;;17.08;52.99;100697.44;6175925;28;20226;-62
2021/10/29 15:28:23;;;;;;;6.90;3.63;;;;;;;16.78;52.89;100675.72;6176121;28;20260;-64
2021/10/29 15:43:12;;;;;;;4.27;3.87;;;;;;;16.13;54.56;100677.19;6179093;28;20234;-64
2021/10/29 15:46:38;;;;;;;4.43;3.63;;;;;;;15.96;54.92;100675.13;6176502;28;20257;-64
2021/10/29 15:50:06;;;;;;;6.10;4.30;;;;;;;15.98;54.97;100673.31;6176699;28;20233;-63
2021/10/29 15:53:27;;;;;;;4.73;3.77;;;;;;;16.01;54.89;100685.47;6180980;28;20671;-62
2021/10/29 15:56:51;;;;;;;8.63;3.60;;;;;;;15.75;55.49;100702.94;6180533;28;20221;-65
2021/10/29 16:00:24;;;;;;;10.63;4.40;;;;;;;15.73;55.76;100700.38;6177309;28;20336;-65
2021/10/29 16:03:55;;;;;;;7.80;4.60;;;;;;;16.11;55.03;100700.88;6175485;28;20227;-65
2021/10/29 16:18:33;;;;;;;6.07;5.47;;;;;;;15.78;55.91;100701.97;6225395;23;20230;-64
2021/10/29 16:22:10;;;;;;;6.37;5.63;;;;;;;15.65;56.45;100704.97;6166289;28;20238;-65
2021/10/29 16:25:48;;;;;;;10.57;5.90;;;;;;;15.40;57.34;100706.66;6151759;28;20230;-64
2021/10/29 16:29:13;;;;;;;7.87;5.60;;;;;;;15.40;57.47;100704.88;6157923;28;20202;-65
2021/10/29 16:32:52;;;;;;;8.87;4.90;;;;;;;15.71;56.59;100702.16;6162337;28;20234;-64
2021/10/29 16:36:14;;;;;;;7.60;5.87;;;;;;;15.93;55.70;100715.47;6155692;28;20572;-63
2021/10/29 16:39:35;;;;;;;6.93;6.23;;;;;;;15.70;56.65;100728.44;6152639;28;20289;-64
2021/10/29 16:42:57;;;;;;;6.53;5.87;;;;;;;15.19;57.98;100737.03;6157361;28;20289;-65
2021/10/29 16:46:18;;;;;;;8.10;5.17;;;;;;;15.33;57.79;100719.97;6153466;28;20223;-65
2021/10/29 16:49:39;;;;;;;8.77;5.70;;;;;;;15.43;57.49;100722.28;6156686;28;20230;-65
2021/10/29 16:53:00;;;;;;;8.13;5.60;;;;;;;15.38;57.92;100717.19;6156215;28;20203;-64
2021/10/29 16:56:21;;;;;;;6.13;5.53;;;;;;;15.60;57.11;100722.63;6157673;28;20261;-64
2021/10/29 16:59:43;;;;;;;7.87;5.87;;;;;;;15.35;57.92;100728.66;6163568;28;20219;-62
2021/10/29 17:03:05;;;;;;;5.83;5.33;;;;;;;15.30;57.72;100733.16;6163263;28;20231;-64
2021/10/29 17:06:26;;;;;;;6.20;5.53;;;;;;;15.07;58.77;100731.22;6159856;28;20262;-65
2021/10/29 17:09:50;;;;;;;9.33;7.17;;;;;;;15.35;57.91;100725.16;6155923;28;20238;-64
2021/10/29 17:13:13;;;;;;;9.07;5.93;;;;;;;15.27;58.43;100729.78;6164006;28;20202;-64
2021/10/29 17:16:35;;;;;;;7.70;6.50;;;;;;;15.27;57.69;100737.63;6163805;28;20625;-65
2021/10/29 17:19:56;;;;;;;6.87;6.10;;;;;;;15.46;57.66;100749.31;6158687;28;20234;-64
2021/10/29 17:23:17;;;;;;;7.97;7.13;;;;;;;15.48;57.62;100742.25;6160083;28;20219;-64
2021/10/29 17:26:40;;;;;;;9.13;6.63;;;;;;;15.18;58.61;100748.41;6154795;28;20230;-64
2021/10/29 17:30:02;;;;;;;7.57;6.87;;;;;;;15.18;58.50;100743.16;6151092;28;20261;-64
2021/10/29 17:33:24;;;;;;;9.07;8.17;;;;;;;15.28;58.37;100732.34;6160775;28;20245;-64
2021/10/29 17:36:48;;;;;;;11.73;7.73;;;;;;;15.05;59.21;100729.56;6163187;28;20238;-65
2021/10/29 17:40:12;;;;;;;8.27;7.47;;;;;;;15.15;58.81;100723.97;6153525;28;20591;-63
2021/10/29 17:43:36;;;;;;;8.23;6.90;;;;;;;14.71;60.04;100727.88;6151148;28;20211;-63
2021/10/29 17:46:58;;;;;;;8.87;7.97;;;;;;;14.41;61.25;100742.63;6155333;28;20246;-64
2021/10/29 17:50:20;;;;;;;8.77;7.50;;;;;;;14.57;60.89;100744.81;6153860;28;20235;-65
2021/10/29 17:53:41;;;;;;;9.70;7.67;;;;;;;14.65;60.39;100735.91;6155611;28;20223;-64
2021/10/29 17:57:02;;;;;;;10.27;9.23;;;;;;;14.65;60.20;100739.38;6147519;28;20231;-63
2021/10/29 18:00:23;;;;;;;13.07;7.57;;;;;;;14.20;61.51;100734.41;6152121;28;20230;-64
2021/10/29 18:03:46;;;;;;;8.87;7.67;;;;;;;14.43;61.23;100732.97;6153089;28;20203;-64
2021/10/29 18:07:08;;;;;;;10.80;9.70;;;;;;;14.51;60.66;100728.38;6145844;28;20242;-63
2021/10/29 18:10:31;;;;;;;11.30;9.67;;;;;;;14.31;61.51;100728.91;6155461;28;20242;-64
2021/10/29 18:13:52;;;;;;;12.30;8.90;;;;;;;14.08;62.10;100739.97;6160206;28;20231;-64
2021/10/29 18:17:14;;;;;;;10.83;8.17;;;;;;;14.21;61.41;100735.28;6157398;28;20257;-65
2021/10/29 18:24:24;;;;;;;9.27;8.47;;;;;;;14.38;61.01;100736.59;6172132;23;20279;-65
2021/10/29 18:27:45;;;;;;;8.67;7.87;;;;;;;13.74;63.26;100743.38;6137328;28;20227;-64
2021/10/29 18:31:11;;;;;;;10.10;8.87;;;;;;;13.68;63.53;100748.78;6137818;28;20528;-65
2021/10/29 18:34:33;;;;;;;10.73;8.63;;;;;;;13.87;63.12;100739.59;6115296;28;20188;-64
2021/10/29 18:37:55;;;;;;;10.43;8.20;;;;;;;13.93;62.87;100735.97;6109593;29;21516;-63
2021/10/29 18:41:18;;;;;;;10.80;9.70;;;;;;;13.81;63.13;100736.28;6103189;28;20232;-64
2021/10/29 18:44:40;;;;;;;11.27;9.90;;;;;;;13.87;62.77;100734.34;6104595;28;20236;-63
2021/10/29 18:48:02;;;;;;;17.40;11.20;;;;;;;13.83;62.55;100724.84;6100199;29;21569;-64
2021/10/29 18:51:25;;;;;;;10.57;9.50;;;;;;;13.97;62.26;100714.91;6099105;28;20334;-65
2021/10/29 18:54:46;;;;;;;12.13;9.30;;;;;;;13.56;63.22;100714.13;6102519;28;20232;-63
2021/10/29 18:58:08;;;;;;;9.83;8.83;;;;;;;13.75;63.03;100718.94;6100221;29;20216;-64
2021/10/29 19:01:29;;;;;;;14.83;12.13;;;;;;;13.23;64.52;100717.47;6101148;28;20629;-65
2021/10/29 19:04:53;;;;;;;12.93;11.13;;;;;;;13.69;62.85;100721.72;6103433;28;20243;-64
2021/10/29 19:08:13;;;;;;;10.53;9.43;;;;;;;13.35;63.85;100728.56;6105935;29;20281;-63
2021/10/29 19:11:39;;;;;;;11.97;10.87;;;;;;;13.65;63.18;100733.13;6108864;28;20288;-63
2021/10/29 19:15:02;;;;;;;11.93;10.13;;;;;;;13.12;64.79;100729.00;6101769;28;20240;-65
2021/10/29 19:18:23;;;;;;;10.17;9.17;;;;;;;13.33;66.46;100739.94;6109188;29;20212;-63
2021/10/29 19:21:45;;;;;;;10.73;9.33;;;;;;;13.90;65.00;100721.22;6101772;28;20236;-63
2021/10/29 19:25:08;;;;;;;12.47;10.43;;;;;;;13.63;63.51;100725.34;6109476;28;20240;-63
2021/10/29 19:28:29;;;;;;;12.67;9.53;;;;;;;13.32;64.01;100719.94;6111827;29;20568;-64